Time;durP1;ratioP1;P1;durP2;ratioP2;P2;SDS_P1;SDS_P2;PMS_P1;PMS_P2;Temp;Humidity;BMP_temperature;BMP_pressure;BME280_temperature;BME280_humidity;BME280_pressure;Samples;Min_cycle;Max_cycle;Signal;HPM_P1;HPM_P2
2021/07/08 00:02:20;;;;;;;3.92;1.98;;;;;;;;;;6231473;23;20210;-91
2021/07/08 00:05:26;;;;;;;8.15;2.25;;;;;;;;;;6231090;23;20190;-92
2021/07/08 00:08:33;;;;;;;1.60;1.30;;;;;;;;;;6230934;23;20174;-92
2021/07/08 00:11:40;;;;;;;3.30;1.58;;;;;;;;;;6230099;23;20175;-91
2021/07/08 00:14:45;;;;;;;6.40;1.35;;;;;;;;;;6231219;23;20191;-91
2021/07/08 00:17:50;;;;;;;3.15;1.55;;;;;;;;;;6230889;23;20166;-89
2021/07/08 00:20:55;;;;;;;4.35;1.52;;;;;;;;;;6231109;23;20174;-92
2021/07/08 00:24:04;;;;;;;3.67;1.55;;;;;;;;;;6230596;23;20183;-91
2021/07/08 00:27:11;;;;;;;8.07;1.50;;;;;;;;;;6231119;23;20167;-90
2021/07/08 00:30:18;;;;;;;5.22;1.20;;;;;;;;;;6232014;23;20166;-88
2021/07/08 00:33:24;;;;;;;1.73;1.17;;;;;;;;;;6231186;23;20630;-90
2021/07/08 00:36:32;;;;;;;6.85;1.35;;;;;;;;;;6229965;23;20167;-92
2021/07/08 00:39:37;;;;;;;3.97;1.50;;;;;;;;;;6231153;23;20167;-91
2021/07/08 00:42:44;;;;;;;4.78;1.50;;;;;;;;;;6229874;23;20174;-90
2021/07/08 00:45:49;;;;;;;3.70;1.60;;;;;;;;;;6230018;22;20247;-90
2021/07/08 00:48:55;;;;;;;5.45;1.40;;;;;;;;;;6230708;23;20168;-89
2021/07/08 00:52:00;;;;;;;5.10;1.50;;;;;;;;;;6232788;22;20171;-91
2021/07/08 00:55:06;;;;;;;3.15;1.30;;;;;;;;;;6232135;22;20244;-90
2021/07/08 00:58:16;;;;;;;2.67;1.52;;;;;;;;;;6231499;22;20167;-91
2021/07/08 01:01:20;;;;;;;5.55;1.70;;;;;;;;;;6232802;23;20622;-91
2021/07/08 01:04:26;;;;;;;2.15;1.63;;;;;;;;;;6231351;23;20190;-92
2021/07/08 01:07:31;;;;;;;4.32;1.80;;;;;;;;;;6232420;23;20176;-91
2021/07/08 01:10:41;;;;;;;6.63;2.10;;;;;;;;;;6232468;23;20235;-91
2021/07/08 01:13:48;;;;;;;5.65;2.13;;;;;;;;;;6233287;23;20182;-90
2021/07/08 01:16:53;;;;;;;5.55;2.38;;;;;;;;;;6232805;23;20166;-91
2021/07/08 01:19:58;;;;;;;9.32;3.10;;;;;;;;;;6232694;23;20174;-89
2021/07/08 01:26:32;;;;;;;8.50;2.47;;;;;;;;;;6241481;23;20184;-91
2021/07/08 01:29:46;;;;;;;5.72;2.53;;;;;;;;;;6241631;22;20204;-90
2021/07/08 01:32:52;;;;;;;5.03;2.53;;;;;;;;;;6241567;22;20179;-89
2021/07/08 01:36:05;;;;;;;4.10;2.30;;;;;;;;;;6241625;22;20178;-90
2021/07/08 01:39:17;;;;;;;3.95;2.00;;;;;;;;;;6241780;22;20171;-89
2021/07/08 01:45:45;;;;;;;2.58;2.05;;;;;;;;;;6241391;22;20233;-91
2021/07/08 01:48:52;;;;;;;3.33;2.30;;;;;;;;;;6236842;23;20171;-92
2021/07/08 01:52:00;;;;;;;3.22;2.30;;;;;;;;;;6236410;22;20594;-89
2021/07/08 01:55:07;;;;;;;4.65;2.35;;;;;;;;;;6233386;22;20258;-91
2021/07/08 02:01:32;;;;;;;2.53;1.80;;;;;;;;;;6230491;23;20219;-87
2021/07/08 02:04:37;;;;;;;4.60;2.25;;;;;;;;;;6230953;23;20194;-90
2021/07/08 02:07:41;;;;;;;2.88;1.90;;;;;;;;;;6230847;23;20166;-88
2021/07/08 02:10:48;;;;;;;3.22;2.25;;;;;;;;;;6230476;23;20171;-89
2021/07/08 02:13:53;;;;;;;2.97;2.10;;;;;;;;;;6231652;23;20162;-90
2021/07/08 02:17:05;;;;;;;4.75;1.88;;;;;;;;;;6237281;22;20174;-90
2021/07/08 02:20:16;;;;;;;3.15;2.00;;;;;;;;;;6233173;23;20172;-90
2021/07/08 02:23:22;;;;;;;2.92;1.80;;;;;;;;;;6234773;22;20167;-91
2021/07/08 02:26:29;;;;;;;4.28;1.80;;;;;;;;;;6230992;23;20235;-89
2021/07/08 02:29:34;;;;;;;2.75;1.50;;;;;;;;;;6230811;23;20175;-89
2021/07/08 02:32:40;;;;;;;3.63;1.30;;;;;;;;;;6232190;22;20164;-89
2021/07/08 02:35:45;;;;;;;5.95;1.40;;;;;;;;;;6232695;22;20174;-90
2021/07/08 02:38:50;;;;;;;4.20;1.58;;;;;;;;;;6231502;22;20203;-90
2021/07/08 02:41:57;;;;;;;2.38;1.38;;;;;;;;;;6230305;22;20168;-89
2021/07/08 02:45:02;;;;;;;2.90;1.42;;;;;;;;;;6233650;22;20227;-90
2021/07/08 02:48:12;;;;;;;2.03;1.30;;;;;;;;;;6252400;23;20166;-90
2021/07/08 02:51:20;;;;;;;2.35;1.30;;;;;;;;;;6250153;22;20194;-87
2021/07/08 02:54:44;;;;;;;2.08;1.20;;;;;;;;;;6234194;23;20234;-90
2021/07/08 02:57:51;;;;;;;2.85;1.40;;;;;;;;;;6226770;22;20202;-89
2021/07/08 03:01:00;;;;;;;2.40;1.30;;;;;;;;;;6231786;23;20239;-90
2021/07/08 03:07:28;;;;;;;5.68;1.35;;;;;;;;;;6232216;23;20167;-90
2021/07/08 03:10:37;;;;;;;2.85;1.65;;;;;;;;;;6247823;23;20167;-90
2021/07/08 03:13:58;;;;;;;1.35;1.10;;;;;;;;;;6232840;23;20167;-90
2021/07/08 03:17:05;;;;;;;3.15;1.10;;;;;;;;;;6233601;23;20231;-87
2021/07/08 03:20:12;;;;;;;2.55;1.23;;;;;;;;;;6229795;23;20167;-89
2021/07/08 03:23:20;;;;;;;1.30;1.10;;;;;;;;;;6232085;22;20162;-90
2021/07/08 03:26:25;;;;;;;4.32;1.40;;;;;;;;;;6230534;22;20195;-90
2021/07/08 03:29:30;;;;;;;2.88;1.40;;;;;;;;;;6230301;23;20204;-91
2021/07/08 03:32:40;;;;;;;4.38;1.48;;;;;;;;;;6229213;22;20167;-89
2021/07/08 03:35:50;;;;;;;4.65;1.35;;;;;;;;;;6246922;22;20636;-90
2021/07/08 03:38:56;;;;;;;4.00;1.30;;;;;;;;;;6229658;23;20250;-90
2021/07/08 03:42:01;;;;;;;3.30;1.38;;;;;;;;;;6229721;22;20481;-90
2021/07/08 03:45:07;;;;;;;3.15;1.40;;;;;;;;;;6229280;23;20190;-90
2021/07/08 03:48:13;;;;;;;4.00;1.40;;;;;;;;;;6228340;23;20170;-90
2021/07/08 03:51:18;;;;;;;3.78;1.50;;;;;;;;;;6230007;23;20174;-91
2021/07/08 03:54:23;;;;;;;3.92;1.50;;;;;;;;;;6229016;22;20626;-88
2021/07/08 03:57:29;;;;;;;3.38;1.48;;;;;;;;;;6228186;23;20190;-89
2021/07/08 04:00:39;;;;;;;3.13;1.50;;;;;;;;;;6230793;23;20162;-90
2021/07/08 04:03:47;;;;;;;2.72;1.58;;;;;;;;;;6230835;23;20176;-92
2021/07/08 04:07:27;;;;;;;4.45;1.58;;;;;;;;;;6230739;22;20246;-90
2021/07/08 04:10:35;;;;;;;3.55;1.40;;;;;;;;;;6230059;22;20174;-90
2021/07/08 04:13:40;;;;;;;2.88;1.40;;;;;;;;;;6231721;22;20155;-91
2021/07/08 04:16:48;;;;;;;3.28;1.30;;;;;;;;;;6248409;22;20170;-91
2021/07/08 04:19:58;;;;;;;6.22;1.55;;;;;;;;;;6248694;23;20179;-91
2021/07/08 04:23:08;;;;;;;2.58;1.40;;;;;;;;;;6232603;23;20223;-92
2021/07/08 04:26:18;;;;;;;3.67;1.60;;;;;;;;;;6232737;23;20191;-90
2021/07/08 04:29:23;;;;;;;3.70;1.50;;;;;;;;;;6234421;23;20215;-89
2021/07/08 04:32:28;;;;;;;9.23;1.92;;;;;;;;;;6232986;23;20175;-92
2021/07/08 04:35:39;;;;;;;9.55;2.30;;;;;;;;;;6233957;22;20215;-89
2021/07/08 04:38:48;;;;;;;5.05;1.85;;;;;;;;;;6233515;22;20238;-89
2021/07/08 04:41:53;;;;;;;12.45;2.08;;;;;;;;;;6234587;22;20220;-90
2021/07/08 04:44:59;;;;;;;11.55;2.00;;;;;;;;;;6233066;22;20219;-89
2021/07/08 04:48:11;;;;;;;6.28;1.90;;;;;;;;;;6232872;23;20167;-89
2021/07/08 04:51:18;;;;;;;5.43;1.95;;;;;;;;;;6237020;23;20174;-90
2021/07/08 04:54:23;;;;;;;10.80;2.08;;;;;;;;;;6234476;22;20167;-90
2021/07/08 04:57:28;;;;;;;7.32;1.95;;;;;;;;;;6232400;22;20194;-89
2021/07/08 05:00:34;;;;;;;7.65;1.67;;;;;;;;;;6232849;22;20171;-90
2021/07/08 05:03:39;;;;;;;13.43;2.25;;;;;;;;;;6233554;22;20207;-89
2021/07/08 05:06:45;;;;;;;3.88;1.42;;;;;;;;;;6232980;22;20193;-91
2021/07/08 05:09:51;;;;;;;7.05;1.85;;;;;;;;;;6232345;22;20175;-91
2021/07/08 05:12:56;;;;;;;5.88;1.75;;;;;;;;;;6234357;23;20252;-91
2021/07/08 05:16:02;;;;;;;4.70;1.63;;;;;;;;;;6232174;22;20171;-90
2021/07/08 05:19:07;;;;;;;8.55;1.42;;;;;;;;;;6232616;22;20220;-91
2021/07/08 05:22:17;;;;;;;3.35;1.80;;;;;;;;;;6234006;22;20166;-91
2021/07/08 05:25:22;;;;;;;7.60;1.63;;;;;;;;;;6214951;22;20265;-91
2021/07/08 05:28:27;;;;;;;3.47;1.50;;;;;;;;;;6232150;22;20615;-90
2021/07/08 05:31:33;;;;;;;4.43;1.50;;;;;;;;;;6233293;22;20171;-90
2021/07/08 05:34:41;;;;;;;3.58;1.30;;;;;;;;;;6234776;23;20238;-90
2021/07/08 05:37:49;;;;;;;4.45;1.30;;;;;;;;;;6235178;23;20170;-90
2021/07/08 05:40:57;;;;;;;2.05;1.20;;;;;;;;;;6251297;22;20167;-90
2021/07/08 05:44:03;;;;;;;2.70;1.13;;;;;;;;;;6232989;22;20163;-91
2021/07/08 05:47:09;;;;;;;3.85;1.00;;;;;;;;;;6232526;22;20195;-90
2021/07/08 05:50:15;;;;;;;4.63;1.00;;;;;;;;;;6233955;22;20171;-90
2021/07/08 05:53:23;;;;;;;4.78;1.10;;;;;;;;;;6232810;23;20195;-90
2021/07/08 05:56:31;;;;;;;7.57;1.20;;;;;;;;;;6232413;22;20506;-91
2021/07/08 05:59:39;;;;;;;3.80;1.38;;;;;;;;;;6184773;23;20175;-91
2021/07/08 06:02:45;;;;;;;8.05;1.20;;;;;;;;;;6187600;23;20163;-90
2021/07/08 06:05:50;;;;;;;1.98;1.10;;;;;;;;;;6184918;23;20195;-89
2021/07/08 06:08:57;;;;;;;5.60;1.13;;;;;;;;;;6186183;23;20156;-89
2021/07/08 06:12:04;;;;;;;1.70;1.33;;;;;;;;;;6185910;23;20155;-90
2021/07/08 06:15:10;;;;;;;2.78;0.90;;;;;;;;;;6187593;23;20188;-90
2021/07/08 06:18:15;;;;;;;5.03;1.10;;;;;;;;;;6186619;23;20502;-92
2021/07/08 06:21:20;;;;;;;7.22;1.30;;;;;;;;;;6186247;23;20171;-91
2021/07/08 06:24:31;;;;;;;7.00;1.40;;;;;;;;;;6187998;23;20163;-90
2021/07/08 06:27:37;;;;;;;2.53;1.08;;;;;;;;;;6186236;23;20192;-89
2021/07/08 06:30:42;;;;;;;3.63;1.35;;;;;;;;;;6185281;23;20667;-91
2021/07/08 06:33:48;;;;;;;7.55;1.77;;;;;;;;;;6185825;23;20163;-92
2021/07/08 06:36:53;;;;;;;9.30;2.85;;;;;;;;;;6187997;23;20166;-91
2021/07/08 06:40:00;;;;;;;11.18;2.85;;;;;;;;;;6189251;23;20176;-92
2021/07/08 06:43:07;;;;;;;3.58;1.50;;;;;;;;;;6186846;23;20159;-91
2021/07/08 06:46:17;;;;;;;3.97;1.52;;;;;;;;;;6185843;23;20203;-92
2021/07/08 06:49:22;;;;;;;2.78;1.08;;;;;;;;;;6184032;23;20179;-89
2021/07/08 06:52:31;;;;;;;2.35;0.90;;;;;;;;;;6185316;23;20152;-90
2021/07/08 06:55:38;;;;;;;1.80;1.00;;;;;;;;;;6186401;23;20176;-90
2021/07/08 06:58:43;;;;;;;2.90;0.80;;;;;;;;;;6220668;23;20259;-89
2021/07/08 07:01:49;;;;;;;3.05;1.30;;;;;;;;;;6233316;22;20168;-91
2021/07/08 07:04:56;;;;;;;2.38;1.10;;;;;;;;;;6232394;23;20178;-91
2021/07/08 07:08:02;;;;;;;5.30;1.73;;;;;;;;;;6250097;22;20195;-92
2021/07/08 07:11:14;;;;;;;2.22;1.02;;;;;;;;;;6232183;23;20151;-92
2021/07/08 07:14:19;;;;;;;1.80;1.05;;;;;;;;;;6235331;22;20176;-91
2021/07/08 07:17:25;;;;;;;1.92;0.80;;;;;;;;;;6236258;23;20187;-90
2021/07/08 07:20:30;;;;;;;3.53;1.70;;;;;;;;;;6232862;23;20171;-90
2021/07/08 07:23:44;;;;;;;4.00;1.45;;;;;;;;;;6232702;22;20171;-90
2021/07/08 07:26:54;;;;;;;9.13;2.65;;;;;;;;;;6236735;22;20211;-92
2021/07/08 07:30:03;;;;;;;7.05;1.88;;;;;;;;;;6234277;23;20245;-90
2021/07/08 07:33:09;;;;;;;1.42;0.95;;;;;;;;;;6236552;22;20171;-91
2021/07/08 07:36:14;;;;;;;3.28;1.10;;;;;;;;;;6235591;22;20186;-90
2021/07/08 07:39:20;;;;;;;2.58;1.35;;;;;;;;;;6235340;23;20243;-89
2021/07/08 07:42:27;;;;;;;5.80;2.00;;;;;;;;;;6234323;23;20179;-92
2021/07/08 07:45:32;;;;;;;5.47;1.60;;;;;;;;;;6249595;23;20179;-89
2021/07/08 07:48:38;;;;;;;4.25;1.30;;;;;;;;;;6235700;23;20187;-91
2021/07/08 07:51:44;;;;;;;2.08;1.20;;;;;;;;;;6235971;23;20171;-91
2021/07/08 07:54:49;;;;;;;3.28;1.48;;;;;;;;;;6233876;22;20240;-91
2021/07/08 07:57:59;;;;;;;4.43;1.20;;;;;;;;;;6234047;23;20238;-89
2021/07/08 08:01:05;;;;;;;2.08;1.15;;;;;;;;;;6233960;23;20669;-90
2021/07/08 08:04:11;;;;;;;1.92;1.20;;;;;;;;;;6253445;23;20155;-91
2021/07/08 08:10:40;;;;;;;2.88;1.33;;;;;;;;;;6253897;23;20147;-91
2021/07/08 08:13:50;;;;;;;6.70;1.50;;;;;;;;;;6238648;22;20891;-91
2021/07/08 08:16:55;;;;;;;1.88;0.90;;;;;;;;;;6215953;23;20193;-89
2021/07/08 08:20:01;;;;;;;2.35;1.10;;;;;;;;;;6234566;23;20174;-90
2021/07/08 08:23:06;;;;;;;2.25;0.90;;;;;;;;;;6235247;22;20175;-92
2021/07/08 08:26:14;;;;;;;2.88;1.00;;;;;;;;;;6237039;22;20216;-90
2021/07/08 08:29:21;;;;;;;3.25;1.10;;;;;;;;;;6234546;23;20296;-92
2021/07/08 08:32:26;;;;;;;4.72;1.17;;;;;;;;;;6234619;22;20245;-90
2021/07/08 08:35:31;;;;;;;6.53;1.20;;;;;;;;;;6235102;22;20151;-92
2021/07/08 08:38:37;;;;;;;4.63;1.20;;;;;;;;;;6234040;22;20170;-91
2021/07/08 08:41:42;;;;;;;3.25;1.10;;;;;;;;;;6235996;22;20166;-92
2021/07/08 08:44:57;;;;;;;4.10;1.20;;;;;;;;;;6237280;22;20198;-91
2021/07/08 08:48:03;;;;;;;2.75;1.00;;;;;;;;;;6235517;23;20637;-93
2021/07/08 08:51:10;;;;;;;3.45;1.20;;;;;;;;;;6234516;22;20174;-91
2021/07/08 08:54:17;;;;;;;5.35;1.40;;;;;;;;;;6234794;22;20171;-92
2021/07/08 08:57:23;;;;;;;5.82;1.17;;;;;;;;;;6234674;22;20190;-91
2021/07/08 09:00:44;;;;;;;3.28;1.30;;;;;;;;;;6236143;23;20175;-91
2021/07/08 09:03:50;;;;;;;1.52;1.40;;;;;;;;;;6235173;23;20183;-91
2021/07/08 09:07:02;;;;;;;1.27;1.13;;;;;;;;;;6237105;22;20174;-90
2021/07/08 09:10:20;;;;;;;4.93;1.30;;;;;;;;;;6235517;22;20206;-93
2021/07/08 09:20:49;;;;;;;3.50;1.42;;;;;;;;;;6259466;22;20186;-91
2021/07/08 09:31:18;;;;;;;3.53;1.40;;;;;;;;;;6241382;22;20605;-93
2021/07/08 09:48:18;;;;;;;3.33;1.33;;;;;;;;;;6240051;22;20183;-93
2021/07/08 16:58:03;;;;;;;5.90;2.67;;;;;;;;;;6216064;22;20203;-91
2021/07/08 17:01:07;;;;;;;4.55;2.35;;;;;;;;;;6229381;23;20166;-89
2021/07/08 17:04:12;;;;;;;5.28;3.00;;;;;;;;;;6230415;23;20170;-88
2021/07/08 17:07:18;;;;;;;5.10;2.65;;;;;;;;;;6228771;23;20163;-90
2021/07/08 17:10:23;;;;;;;6.03;3.20;;;;;;;;;;6233016;23;20171;-89
2021/07/08 17:13:30;;;;;;;7.03;2.95;;;;;;;;;;6230218;23;20167;-89
2021/07/08 17:16:35;;;;;;;4.47;2.60;;;;;;;;;;6228515;23;20166;-89
2021/07/08 17:19:41;;;;;;;7.45;3.63;;;;;;;;;;6229380;23;20171;-90
2021/07/08 17:22:47;;;;;;;4.20;2.92;;;;;;;;;;6229258;23;20190;-89
2021/07/08 17:25:52;;;;;;;6.68;3.42;;;;;;;;;;6229899;23;20216;-89
2021/07/08 17:29:00;;;;;;;5.40;2.90;;;;;;;;;;6230693;23;20238;-88
2021/07/08 17:32:05;;;;;;;3.63;2.67;;;;;;;;;;6228879;22;20171;-89
2021/07/08 17:35:12;;;;;;;4.82;2.80;;;;;;;;;;6228847;23;20587;-89
2021/07/08 17:38:20;;;;;;;6.93;2.97;;;;;;;;;;6228544;23;20190;-90
2021/07/08 17:41:26;;;;;;;4.25;2.55;;;;;;;;;;6228453;23;20178;-89
2021/07/08 17:44:32;;;;;;;4.63;2.92;;;;;;;;;;6227384;23;20250;-90
2021/07/08 17:47:37;;;;;;;5.55;3.03;;;;;;;;;;6228314;23;20198;-88
2021/07/08 17:50:43;;;;;;;4.95;2.90;;;;;;;;;;6228909;23;20234;-90
2021/07/08 17:53:49;;;;;;;4.85;3.20;;;;;;;;;;6229852;23;20183;-90
2021/07/08 17:56:54;;;;;;;3.17;2.20;;;;;;;;;;6246767;23;20183;-90
2021/07/08 18:00:01;;;;;;;6.15;2.75;;;;;;;;;;6228598;23;20192;-89
2021/07/08 18:03:06;;;;;;;3.55;2.60;;;;;;;;;;6234396;22;20171;-91
2021/07/08 18:06:12;;;;;;;4.68;2.60;;;;;;;;;;6233257;23;20217;-90
2021/07/08 18:09:18;;;;;;;6.93;2.70;;;;;;;;;;6213679;23;20172;-90
2021/07/08 18:12:23;;;;;;;4.47;3.30;;;;;;;;;;6232483;23;20171;-90
2021/07/08 18:15:31;;;;;;;7.25;3.10;;;;;;;;;;6230044;23;20183;-90
2021/07/08 18:18:37;;;;;;;5.82;2.95;;;;;;;;;;6230280;22;20194;-88
2021/07/08 18:21:43;;;;;;;3.35;2.80;;;;;;;;;;6228610;22;20167;-90
2021/07/08 18:24:48;;;;;;;4.13;3.10;;;;;;;;;;6230297;23;20163;-89
2021/07/08 18:27:53;;;;;;;5.85;2.97;;;;;;;;;;6230910;23;20238;-91
2021/07/08 18:30:59;;;;;;;5.22;3.17;;;;;;;;;;6232740;22;20171;-90
2021/07/08 18:34:05;;;;;;;8.55;3.83;;;;;;;;;;6231333;23;20170;-91
2021/07/08 18:37:12;;;;;;;7.97;4.28;;;;;;;;;;6230695;22;20161;-91
2021/07/08 18:40:18;;;;;;;11.18;6.35;;;;;;;;;;6231917;22;20661;-90
2021/07/08 18:43:23;;;;;;;5.65;3.88;;;;;;;;;;6229294;22;20229;-90
2021/07/08 18:46:30;;;;;;;6.20;4.40;;;;;;;;;;6232688;23;20198;-90
2021/07/08 18:49:36;;;;;;;5.60;3.70;;;;;;;;;;6230106;22;20163;-91
2021/07/08 18:52:42;;;;;;;5.10;3.88;;;;;;;;;;6231189;23;20170;-91
2021/07/08 18:55:47;;;;;;;7.10;3.85;;;;;;;;;;6229522;22;20179;-91
2021/07/08 18:59:00;;;;;;;6.78;4.13;;;;;;;;;;6230217;23;20203;-91
2021/07/08 19:02:09;;;;;;;8.60;4.05;;;;;;;;;;6231075;22;20171;-90
2021/07/08 19:05:16;;;;;;;8.52;5.72;;;;;;;;;;6231904;22;20167;-89
2021/07/08 19:08:21;;;;;;;8.20;4.82;;;;;;;;;;6231919;23;20162;-89
2021/07/08 19:11:27;;;;;;;7.28;4.57;;;;;;;;;;6232905;23;20171;-90
2021/07/08 19:14:37;;;;;;;6.25;4.10;;;;;;;;;;6233315;22;20175;-90
2021/07/08 19:17:45;;;;;;;5.00;3.95;;;;;;;;;;6232424;23;20238;-90
2021/07/08 19:24:11;;;;;;;8.15;4.45;;;;;;;;;;6234837;22;20167;-91
2021/07/08 19:27:19;;;;;;;8.82;4.10;;;;;;;;;;6234581;22;20175;-92
2021/07/08 19:30:39;;;;;;;9.55;5.50;;;;;;;;;;6235282;22;20167;-91
2021/07/08 19:33:48;;;;;;;9.95;4.88;;;;;;;;;;6235407;22;20171;-91
2021/07/08 19:36:53;;;;;;;8.77;4.00;;;;;;;;;;6234320;22;20166;-89
2021/07/08 19:39:58;;;;;;;10.68;6.18;;;;;;;;;;6233786;23;20187;-91
2021/07/08 19:43:04;;;;;;;7.80;4.15;;;;;;;;;;6233965;22;20166;-88
2021/07/08 19:46:10;;;;;;;5.63;4.18;;;;;;;;;;6232168;23;20171;-90
2021/07/08 19:49:17;;;;;;;6.13;4.40;;;;;;;;;;6231100;22;20279;-89
2021/07/08 19:52:22;;;;;;;8.60;4.30;;;;;;;;;;6231090;23;20187;-89
2021/07/08 19:55:28;;;;;;;7.75;4.90;;;;;;;;;;6248884;22;20167;-89
2021/07/08 19:58:40;;;;;;;6.65;4.35;;;;;;;;;;6231730;23;20226;-90
2021/07/08 20:01:46;;;;;;;11.20;5.03;;;;;;;;;;6231889;23;20171;-89
2021/07/08 20:04:53;;;;;;;10.05;5.35;;;;;;;;;;6230058;23;20215;-89
2021/07/08 20:07:58;;;;;;;9.10;5.03;;;;;;;;;;6229820;23;20151;-88
2021/07/08 20:11:04;;;;;;;9.48;5.22;;;;;;;;;;6229463;23;20154;-91
2021/07/08 20:14:09;;;;;;;7.03;4.70;;;;;;;;;;6230650;23;20182;-88
2021/07/08 20:17:15;;;;;;;6.82;4.43;;;;;;;;;;6231653;23;20249;-88
2021/07/08 20:20:21;;;;;;;10.30;5.68;;;;;;;;;;6230484;23;20175;-88
2021/07/08 20:23:26;;;;;;;10.98;6.22;;;;;;;;;;6247333;22;20236;-89
2021/07/08 20:26:32;;;;;;;7.18;5.03;;;;;;;;;;6229574;23;20195;-89
2021/07/08 20:29:37;;;;;;;6.63;4.80;;;;;;;;;;6249850;22;20223;-89
2021/07/08 20:32:43;;;;;;;11.00;5.40;;;;;;;;;;6229732;23;20203;-89
2021/07/08 20:35:50;;;;;;;13.93;6.28;;;;;;;;;;6232474;23;20171;-89
2021/07/08 20:38:58;;;;;;;10.38;5.88;;;;;;;;;;6231182;23;20249;-90
2021/07/08 20:42:04;;;;;;;12.55;6.03;;;;;;;;;;6231208;22;20162;-91
2021/07/08 20:45:10;;;;;;;8.93;4.90;;;;;;;;;;6234384;23;20158;-90
2021/07/08 20:48:24;;;;;;;11.55;5.43;;;;;;;;;;6248300;22;20180;-89
2021/07/08 20:51:32;;;;;;;8.40;5.30;;;;;;;;;;6231126;23;20718;-90
2021/07/08 20:54:37;;;;;;;8.63;5.93;;;;;;;;;;6231352;22;20203;-89
2021/07/08 20:57:42;;;;;;;11.10;6.97;;;;;;;;;;6227804;22;20186;-88
2021/07/08 21:00:48;;;;;;;9.32;6.15;;;;;;;;;;6229710;23;20171;-88
2021/07/08 21:03:54;;;;;;;11.10;6.50;;;;;;;;;;6229169;23;20622;-89
2021/07/08 21:07:01;;;;;;;13.65;7.18;;;;;;;;;;6227878;23;20187;-88
2021/07/08 21:10:07;;;;;;;10.57;7.32;;;;;;;;;;6232403;23;20175;-87
2021/07/08 21:13:12;;;;;;;10.13;7.03;;;;;;;;;;6231435;23;20238;-88
2021/07/08 21:16:17;;;;;;;12.05;7.40;;;;;;;;;;6230788;23;20206;-87
2021/07/08 21:19:23;;;;;;;9.07;6.90;;;;;;;;;;6230141;23;20195;-88
2021/07/08 21:22:29;;;;;;;11.82;7.18;;;;;;;;;;6230343;23;20170;-89
2021/07/08 21:25:35;;;;;;;10.13;6.72;;;;;;;;;;6229144;23;20175;-89
2021/07/08 21:28:40;;;;;;;12.23;6.05;;;;;;;;;;6231615;23;20249;-89
2021/07/08 21:31:45;;;;;;;9.73;5.95;;;;;;;;;;6230103;23;20171;-89
2021/07/08 21:34:50;;;;;;;10.45;5.75;;;;;;;;;;6231836;23;20151;-89
2021/07/08 21:37:58;;;;;;;8.52;5.47;;;;;;;;;;6230678;23;20175;-88
2021/07/08 21:41:03;;;;;;;7.85;5.22;;;;;;;;;;6230310;22;20163;-89
2021/07/08 21:44:08;;;;;;;11.02;5.78;;;;;;;;;;6247682;23;20191;-89
2021/07/08 21:47:16;;;;;;;10.25;5.63;;;;;;;;;;6230603;23;20247;-88
2021/07/08 21:50:22;;;;;;;11.65;5.15;;;;;;;;;;6229421;22;20171;-89
2021/07/08 21:53:28;;;;;;;8.15;4.95;;;;;;;;;;6229354;23;20187;-88
2021/07/08 21:56:34;;;;;;;9.77;5.30;;;;;;;;;;6228995;22;20151;-87
2021/07/08 21:59:40;;;;;;;12.70;4.75;;;;;;;;;;6233450;23;20199;-88
2021/07/08 22:06:33;;;;;;;11.00;4.30;;;;;;;;;;6251512;23;20151;-89
2021/07/08 22:09:40;;;;;;;9.38;4.03;;;;;;;;;;6232791;23;20166;-89
2021/07/08 22:12:46;;;;;;;10.77;3.63;;;;;;;;;;6232803;22;20179;-89
2021/07/08 22:15:51;;;;;;;8.82;4.10;;;;;;;;;;6232807;23;20167;-89
2021/07/08 22:18:57;;;;;;;7.93;3.40;;;;;;;;;;6231379;22;20295;-89
2021/07/08 22:22:04;;;;;;;5.35;3.20;;;;;;;;;;6230649;23;20172;-89
2021/07/08 22:25:11;;;;;;;7.05;2.72;;;;;;;;;;6231146;22;20214;-89
2021/07/08 22:28:16;;;;;;;4.53;2.80;;;;;;;;;;6230614;23;20183;-89
2021/07/08 22:31:21;;;;;;;5.10;3.40;;;;;;;;;;6229215;23;20794;-90
2021/07/08 22:34:26;;;;;;;4.30;2.60;;;;;;;;;;6229744;23;20167;-90
2021/07/08 22:37:31;;;;;;;5.85;2.38;;;;;;;;;;6229594;22;20282;-87
2021/07/08 22:40:39;;;;;;;3.95;2.60;;;;;;;;;;6229725;23;20171;-90
2021/07/08 22:43:44;;;;;;;3.83;2.47;;;;;;;;;;6230434;22;20174;-90
2021/07/08 22:46:49;;;;;;;4.93;3.03;;;;;;;;;;6231337;22;20179;-90
2021/07/08 22:49:55;;;;;;;4.45;2.50;;;;;;;;;;6231273;22;20155;-89
2021/07/08 22:53:00;;;;;;;4.45;2.35;;;;;;;;;;6228848;23;20172;-89
2021/07/08 22:56:07;;;;;;;5.55;2.17;;;;;;;;;;6230436;22;20155;-90
2021/07/08 22:59:11;;;;;;;3.10;1.50;;;;;;;;;;6230361;23;20211;-89
2021/07/08 23:02:16;;;;;;;2.28;1.35;;;;;;;;;;6232482;22;20290;-90
2021/07/08 23:05:22;;;;;;;2.28;1.23;;;;;;;;;;6230591;23;20175;-89
2021/07/08 23:08:27;;;;;;;3.05;0.98;;;;;;;;;;6231196;23;20220;-90
2021/07/08 23:11:35;;;;;;;6.10;0.90;;;;;;;;;;6232147;23;20221;-89
2021/07/08 23:14:40;;;;;;;3.47;1.10;;;;;;;;;;6231870;23;20226;-91
2021/07/08 23:17:45;;;;;;;4.28;1.05;;;;;;;;;;6232323;23;20171;-89
2021/07/08 23:20:50;;;;;;;2.80;1.00;;;;;;;;;;6230788;23;20166;-90
2021/07/08 23:23:55;;;;;;;1.63;0.80;;;;;;;;;;6231636;23;20167;-89
2021/07/08 23:27:06;;;;;;;2.72;1.00;;;;;;;;;;6248001;22;20171;-90
2021/07/08 23:30:11;;;;;;;1.10;0.90;;;;;;;;;;6230061;22;20170;-90
2021/07/08 23:33:16;;;;;;;2.75;1.00;;;;;;;;;;6229411;23;20262;-90
2021/07/08 23:36:22;;;;;;;2.17;1.00;;;;;;;;;;6230268;22;20163;-90
